createdAt,value
2019-04-30T00:00:38.265Z,93.10
2019-04-30T00:03:21.619Z,93.00
2019-04-30T00:05:53.819Z,93.00
2019-04-30T00:08:23.236Z,93.10
2019-04-30T00:10:55.425Z,93.00
2019-04-30T00:13:25.908Z,93.10
2019-04-30T00:15:58.707Z,93.00
2019-04-30T00:18:30.781Z,93.00
2019-04-30T00:20:59.073Z,93.10
2019-04-30T00:23:30.596Z,92.90
2019-04-30T00:26:08.700Z,93.30
2019-04-30T00:28:32.196Z,93.50
2019-04-30T00:31:02.161Z,93.50
2019-04-30T00:33:32.161Z,93.50
2019-04-30T00:36:02.292Z,93.60
2019-04-30T00:38:36.112Z,93.50
2019-04-30T00:41:06.819Z,93.50
2019-04-30T00:43:37.637Z,93.50
2019-04-30T00:46:07.267Z,93.70
2019-04-30T00:48:37.141Z,93.60
2019-04-30T00:51:13.989Z,93.40
2019-04-30T00:53:52.334Z,93.90
2019-04-30T00:56:24.661Z,93.40
2019-04-30T00:58:55.431Z,93.50
2019-04-30T01:01:27.370Z,93.40
2019-04-30T01:04:15.088Z,93.50
2019-04-30T01:06:46.195Z,93.30
2019-04-30T01:09:16.227Z,93.30
2019-04-30T01:11:48.063Z,93.50
2019-04-30T01:14:18.857Z,93.40
2019-04-30T01:16:49.371Z,93.40
2019-04-30T01:19:29.516Z,93.30
2019-04-30T01:21:52.207Z,93.40
2019-04-30T01:24:23.365Z,93.40
2019-04-30T01:26:53.813Z,93.40
2019-04-30T01:29:23.736Z,93.30
2019-04-30T01:31:53.676Z,93.60
2019-04-30T01:34:24.674Z,93.70
2019-04-30T01:36:54.615Z,93.70
2019-04-30T01:39:28.461Z,93.80
2019-04-30T01:42:02.939Z,93.50
2019-04-30T01:44:32.569Z,93.50
2019-04-30T01:47:02.687Z,93.40
2019-04-30T01:49:41.686Z,93.50
2019-04-30T01:52:04.372Z,93.40
2019-04-30T01:54:34.415Z,93.50
2019-04-30T01:57:22.353Z,93.50
2019-04-30T02:00:02.585Z,93.50
2019-04-30T02:02:35.496Z,93.50
2019-04-30T02:05:08.898Z,93.40
2019-04-30T02:07:40.375Z,93.60
2019-04-30T02:10:11.847Z,93.60
2019-04-30T02:12:41.799Z,93.70
2019-04-30T02:15:11.893Z,93.50
2019-04-30T02:17:41.844Z,93.50
2019-04-30T02:20:12.608Z,93.50
2019-04-30T02:22:42.549Z,93.60
2019-04-30T02:25:12.645Z,93.70
2019-04-30T02:27:42.587Z,93.70
2019-04-30T02:30:12.659Z,93.70
2019-04-30T02:32:42.600Z,93.60
2019-04-30T02:35:14.222Z,93.60
2019-04-30T02:38:02.079Z,93.70
2019-04-30T02:40:34.422Z,93.50
2019-04-30T02:43:06.061Z,93.50
2019-04-30T02:45:40.092Z,93.30
2019-04-30T02:48:11.747Z,93.60
2019-04-30T02:50:45.373Z,93.90
2019-04-30T02:53:40.144Z,93.30
2019-04-30T02:56:09.919Z,93.50
2019-04-30T02:58:41.044Z,93.50
2019-04-30T03:01:11.139Z,93.50
2019-04-30T03:03:42.624Z,93.30
2019-04-30T03:06:12.781Z,93.30
2019-04-30T03:08:55.362Z,93.20
2019-04-30T03:11:25.233Z,93.20
2019-04-30T03:13:55.176Z,93.20
2019-04-30T03:16:26.749Z,93.20
2019-04-30T03:19:01.415Z,93.10
2019-04-30T03:21:45.166Z,93.20
2019-04-30T03:24:15.115Z,93.10
2019-04-30T03:26:45.025Z,92.90
2019-04-30T03:29:14.951Z,93.10
2019-04-30T03:31:45.824Z,93.00
2019-04-30T03:34:24.211Z,93.00
2019-04-30T03:36:50.204Z,93.00
2019-04-30T03:39:20.262Z,93.00
2019-04-30T03:41:50.506Z,93.40
2019-04-30T03:44:25.428Z,93.00
2019-04-30T03:46:52.016Z,92.90
2019-04-30T03:49:21.933Z,92.90
2019-04-30T03:51:51.886Z,92.90
2019-04-30T03:54:21.809Z,92.90
2019-04-30T03:56:53.323Z,92.70
2019-04-30T03:59:23.236Z,92.80
2019-04-30T04:02:01.100Z,93.00
2019-04-30T04:04:32.651Z,92.80
2019-04-30T04:07:04.167Z,93.00
2019-04-30T04:09:41.788Z,93.00
2019-04-30T04:12:25.063Z,92.90
2019-04-30T04:14:55.008Z,92.90
2019-04-30T04:17:24.932Z,92.90
2019-04-30T04:19:54.856Z,92.80
2019-04-30T04:22:24.724Z,92.90
2019-04-30T04:24:54.651Z,92.90
2019-04-30T04:27:24.510Z,92.70
2019-04-30T04:29:54.360Z,92.60
2019-04-30T04:32:24.725Z,92.50
2019-04-30T04:34:54.733Z,92.50
2019-04-30T04:37:25.548Z,92.50
2019-04-30T04:39:55.424Z,92.40
2019-04-30T04:42:25.498Z,92.30
2019-04-30T04:44:55.366Z,92.30
2019-04-30T04:47:26.342Z,92.20
2019-04-30T04:49:56.311Z,91.80
2019-04-30T04:52:26.233Z,91.70
2019-04-30T04:54:56.108Z,91.60
2019-04-30T04:57:26.057Z,91.70
2019-04-30T04:59:55.987Z,91.70
2019-04-30T05:02:43.889Z,91.60
2019-04-30T05:05:14.073Z,91.60
2019-04-30T05:07:44.012Z,91.10
2019-04-30T05:10:14.812Z,91.00
2019-04-30T05:12:44.871Z,90.40
2019-04-30T05:15:15.294Z,90.60
2019-04-30T05:17:45.261Z,90.60
2019-04-30T05:20:15.539Z,90.70
2019-04-30T05:22:45.390Z,90.40
2019-04-30T05:25:15.261Z,90.20
2019-04-30T05:27:45.107Z,90.70
2019-04-30T05:30:15.299Z,90.50
2019-04-30T05:32:45.236Z,90.40
2019-04-30T05:35:15.251Z,89.70
2019-04-30T05:37:45.247Z,89.90
2019-04-30T05:40:16.085Z,87.90
2019-04-30T05:42:46.039Z,87.70
2019-04-30T05:45:16.575Z,85.30
2019-04-30T05:47:46.509Z,81.90
2019-04-30T05:50:16.605Z,77.40
2019-04-30T05:52:46.464Z,77.20
2019-04-30T05:55:16.420Z,75.40
2019-04-30T05:57:53.846Z,73.40
2019-04-30T06:00:19.050Z,73.10
2019-04-30T06:02:49.817Z,70.30
2019-04-30T06:05:20.050Z,69.40
2019-04-30T06:07:52.085Z,70.40
2019-04-30T06:10:26.111Z,72.30
2019-04-30T06:13:00.531Z,73.40
2019-04-30T06:15:32.280Z,74.80
2019-04-30T06:18:10.848Z,75.40
2019-04-30T06:20:34.099Z,77.10
2019-04-30T06:23:04.192Z,78.60
2019-04-30T06:25:52.875Z,79.20
2019-04-30T06:28:06.016Z,79.80
2019-04-30T06:30:36.287Z,80.00
2019-04-30T06:33:06.455Z,78.60
2019-04-30T06:35:36.628Z,78.30
2019-04-30T06:38:08.440Z,78.40
2019-04-30T06:40:39.133Z,78.60
2019-04-30T06:43:09.373Z,78.60
2019-04-30T06:45:39.687Z,78.40
2019-04-30T06:48:09.879Z,79.60
2019-04-30T06:50:39.845Z,79.10
2019-04-30T06:53:09.731Z,78.60
2019-04-30T06:55:39.585Z,76.00
2019-04-30T06:58:15.141Z,72.40
2019-04-30T07:00:41.178Z,70.00
2019-04-30T07:03:11.115Z,69.90
2019-04-30T07:05:41.135Z,70.70
2019-04-30T07:08:38.853Z,72.20
2019-04-30T07:11:19.388Z,70.90
2019-04-30T07:13:52.183Z,70.40
2019-04-30T07:16:22.096Z,70.70
2019-04-30T07:18:52.048Z,69.10
2019-04-30T07:21:22.022Z,67.90
2019-04-30T07:23:52.242Z,67.00
2019-04-30T07:26:24.459Z,65.90
2019-04-30T07:28:55.537Z,65.40
2019-04-30T07:31:25.680Z,65.70
2019-04-30T07:33:55.713Z,66.10
2019-04-30T07:36:44.874Z,65.30
2019-04-30T07:38:59.989Z,67.60
2019-04-30T07:41:30.824Z,68.30
2019-04-30T07:44:00.329Z,69.70
2019-04-30T07:46:35.098Z,70.40
2019-04-30T07:49:01.888Z,71.30
2019-04-30T07:51:37.552Z,72.70
2019-04-30T07:54:03.639Z,72.00
2019-04-30T07:56:37.655Z,71.70
2019-04-30T07:59:05.407Z,71.00
2019-04-30T08:01:35.331Z,72.20
2019-04-30T08:04:09.944Z,72.60
2019-04-30T08:06:40.786Z,71.20
2019-04-30T08:09:10.979Z,69.90
2019-04-30T08:11:43.430Z,69.30
2019-04-30T08:14:12.552Z,69.20
2019-04-30T08:16:42.498Z,68.70
2019-04-30T08:19:12.352Z,67.60
2019-04-30T08:21:42.393Z,67.70
2019-04-30T08:24:12.375Z,66.50
2019-04-30T08:26:42.348Z,65.40
2019-04-30T08:29:12.288Z,65.00
2019-04-30T08:31:42.181Z,63.10
2019-04-30T08:34:12.108Z,63.00
2019-04-30T08:36:42.095Z,62.70
2019-04-30T08:39:12.208Z,61.60
2019-04-30T08:41:42.093Z,59.30
2019-04-30T08:44:12.017Z,60.40
2019-04-30T08:46:41.951Z,60.80
2019-04-30T08:49:12.160Z,61.50
2019-04-30T08:51:42.203Z,61.10
2019-04-30T08:54:12.098Z,59.90
2019-04-30T08:56:42.044Z,61.30
2019-04-30T08:59:11.975Z,59.10
2019-04-30T09:01:41.864Z,58.10
2019-04-30T09:04:11.759Z,57.70
2019-04-30T09:06:41.639Z,59.20
2019-04-30T09:09:13.148Z,59.70
2019-04-30T09:11:54.681Z,61.40
2019-04-30T09:14:14.711Z,61.30
2019-04-30T09:16:44.667Z,60.10
2019-04-30T09:19:16.237Z,57.90
2019-04-30T09:21:48.744Z,58.00
2019-04-30T09:24:19.136Z,56.20
2019-04-30T09:26:50.235Z,56.00
2019-04-30T09:29:20.166Z,58.00
2019-04-30T09:31:50.149Z,57.30
2019-04-30T09:34:21.065Z,55.60
2019-04-30T09:36:51.303Z,55.80
2019-04-30T09:39:23.167Z,55.70
2019-04-30T09:41:53.204Z,56.30
2019-04-30T09:44:23.364Z,56.40
2019-04-30T09:46:54.359Z,57.00
2019-04-30T09:49:24.239Z,56.90
2019-04-30T09:51:54.345Z,56.60
2019-04-30T09:54:26.053Z,55.80
2019-04-30T09:56:55.958Z,55.30
2019-04-30T09:59:25.928Z,55.40
2019-04-30T10:01:55.812Z,55.40
2019-04-30T10:04:27.760Z,53.80
2019-04-30T10:06:59.577Z,52.40
2019-04-30T10:09:29.624Z,51.40
2019-04-30T10:12:03.809Z,50.00
2019-04-30T10:14:33.774Z,50.20
2019-04-30T10:17:23.480Z,50.20
2019-04-30T10:19:53.429Z,51.20
2019-04-30T10:22:23.440Z,52.50
2019-04-30T10:24:53.450Z,52.60
2019-04-30T10:27:24.531Z,49.40
2019-04-30T10:29:54.635Z,48.30
2019-04-30T10:32:24.637Z,47.80
2019-04-30T10:34:54.567Z,45.50
2019-04-30T10:37:24.543Z,43.40
2019-04-30T10:39:54.568Z,42.90
2019-04-30T10:42:24.453Z,44.70
2019-04-30T10:44:54.440Z,42.60
2019-04-30T10:47:24.391Z,40.00
2019-04-30T10:49:54.324Z,38.60
2019-04-30T10:52:24.460Z,37.60
2019-04-30T10:54:54.333Z,39.20
2019-04-30T10:57:24.210Z,42.20
2019-04-30T10:59:54.151Z,44.80
2019-04-30T11:02:24.030Z,46.20
2019-04-30T11:04:54.134Z,47.10
2019-04-30T11:07:24.065Z,47.20
2019-04-30T11:09:53.954Z,48.00
2019-04-30T11:12:24.071Z,49.10
2019-04-30T11:14:53.957Z,48.50
2019-04-30T11:17:25.170Z,46.10
2019-04-30T11:19:55.372Z,43.40
2019-04-30T11:22:25.800Z,40.10
2019-04-30T11:25:01.643Z,39.00
2019-04-30T11:27:30.061Z,39.00
2019-04-30T11:30:03.239Z,40.30
2019-04-30T11:32:30.924Z,40.00
2019-04-30T11:35:01.091Z,42.20
2019-04-30T11:37:31.118Z,42.30
2019-04-30T11:40:01.119Z,45.70
2019-04-30T11:42:32.404Z,45.70
2019-04-30T11:45:02.585Z,43.80
2019-04-30T11:47:33.974Z,41.80
2019-04-30T11:50:06.037Z,41.20
2019-04-30T11:52:36.116Z,43.30
2019-04-30T11:55:09.627Z,43.40
2019-04-30T11:57:39.938Z,42.20
2019-04-30T12:00:14.264Z,43.90
2019-04-30T12:02:44.270Z,42.30
2019-04-30T12:05:15.347Z,41.20
2019-04-30T12:07:56.508Z,40.20
2019-04-30T12:10:29.391Z,40.40
2019-04-30T12:12:59.343Z,39.30
2019-04-30T12:15:29.285Z,37.30
2019-04-30T12:17:59.585Z,34.60
2019-04-30T12:20:29.613Z,34.30
2019-04-30T12:22:59.497Z,33.00
2019-04-30T12:25:30.409Z,31.90
2019-04-30T12:28:00.460Z,31.30
2019-04-30T12:30:30.356Z,35.10
2019-04-30T12:33:00.239Z,35.40
2019-04-30T12:35:30.250Z,32.60
2019-04-30T12:38:01.293Z,31.60
2019-04-30T12:40:32.392Z,31.60
2019-04-30T12:43:02.452Z,30.00
2019-04-30T12:45:33.359Z,30.00
2019-04-30T12:48:10.667Z,28.50
2019-04-30T12:50:43.243Z,27.60
2019-04-30T12:53:14.810Z,27.90
2019-04-30T12:55:46.324Z,28.30
2019-04-30T12:58:16.191Z,28.60
2019-04-30T13:00:46.135Z,28.90
2019-04-30T13:03:16.010Z,30.10
2019-04-30T13:05:46.320Z,32.60
2019-04-30T13:08:16.857Z,33.40
2019-04-30T13:10:47.659Z,33.40
2019-04-30T13:13:18.552Z,32.20
2019-04-30T13:15:48.742Z,34.50
2019-04-30T13:18:19.467Z,35.50
2019-04-30T13:20:49.543Z,37.10
2019-04-30T13:23:19.613Z,38.00
2019-04-30T13:25:51.673Z,36.50
2019-04-30T13:28:25.243Z,34.70
2019-04-30T13:30:55.123Z,35.60
2019-04-30T13:33:29.451Z,37.40
2019-04-30T13:35:59.389Z,37.50
2019-04-30T13:38:30.889Z,38.80
2019-04-30T13:41:08.950Z,39.30
2019-04-30T13:43:53.491Z,40.40
2019-04-30T13:46:24.019Z,41.30
2019-04-30T13:48:53.913Z,42.50
2019-04-30T13:51:23.791Z,43.00
2019-04-30T13:53:53.843Z,43.10
2019-04-30T13:56:23.707Z,43.20
2019-04-30T13:58:53.688Z,42.30
2019-04-30T14:01:23.551Z,43.30
2019-04-30T14:03:58.996Z,43.40
2019-04-30T14:06:39.519Z,44.20
2019-04-30T14:09:25.849Z,44.40
2019-04-30T14:11:55.842Z,44.40
2019-04-30T14:14:25.703Z,44.20
2019-04-30T14:16:55.915Z,44.00
2019-04-30T14:19:25.832Z,44.60
2019-04-30T14:21:55.770Z,44.60
2019-04-30T14:24:25.707Z,44.50
2019-04-30T14:26:55.600Z,44.70
2019-04-30T14:29:25.522Z,44.60
2019-04-30T14:31:55.527Z,44.10
2019-04-30T14:34:25.468Z,43.70
2019-04-30T14:36:55.415Z,43.40
2019-04-30T14:39:25.403Z,42.60
2019-04-30T14:41:55.904Z,42.10
2019-04-30T14:44:31.087Z,41.50
2019-04-30T14:47:12.319Z,41.00
2019-04-30T14:50:04.404Z,39.90
2019-04-30T14:52:32.637Z,39.20
2019-04-30T14:55:20.773Z,38.20
2019-04-30T14:57:52.277Z,37.80
2019-04-30T15:00:36.195Z,35.60
2019-04-30T15:03:19.804Z,35.70
2019-04-30T15:05:51.653Z,36.50
2019-04-30T15:08:21.374Z,36.50
2019-04-30T15:10:51.346Z,36.10
2019-04-30T15:13:21.227Z,34.70
2019-04-30T15:15:51.244Z,34.50
2019-04-30T15:18:21.114Z,33.90
2019-04-30T15:20:51.048Z,34.40
2019-04-30T15:23:28.519Z,33.70
2019-04-30T15:25:58.699Z,33.50
2019-04-30T15:28:32.412Z,34.10
2019-04-30T15:31:01.649Z,33.70
2019-04-30T15:33:33.224Z,33.30
2019-04-30T15:36:06.515Z,32.90
2019-04-30T15:38:54.868Z,31.40
2019-04-30T15:41:25.030Z,30.80
2019-04-30T15:43:55.035Z,31.20
2019-04-30T15:46:24.876Z,31.60
2019-04-30T15:48:54.798Z,31.40
2019-04-30T15:51:24.650Z,31.70
2019-04-30T15:53:54.688Z,31.80
2019-04-30T15:56:34.367Z,32.30
2019-04-30T15:59:12.832Z,31.30
2019-04-30T16:01:50.507Z,31.00
2019-04-30T16:04:38.505Z,31.20
2019-04-30T16:07:08.594Z,31.20
2019-04-30T16:09:50.679Z,31.30
2019-04-30T16:12:22.256Z,31.70
2019-04-30T16:14:52.657Z,31.60
2019-04-30T16:17:24.456Z,30.80
2019-04-30T16:19:54.318Z,30.50
2019-04-30T16:22:24.165Z,30.70
2019-04-30T16:24:54.716Z,29.90
2019-04-30T16:27:25.104Z,28.50
2019-04-30T16:29:55.001Z,27.70
2019-04-30T16:32:24.850Z,27.50
2019-04-30T16:34:54.884Z,27.80
2019-04-30T16:37:24.801Z,26.80
2019-04-30T16:39:54.753Z,27.60
2019-04-30T16:42:24.613Z,28.10
2019-04-30T16:44:54.728Z,28.00
2019-04-30T16:47:24.607Z,27.10
2019-04-30T16:49:54.637Z,26.90
2019-04-30T16:52:24.548Z,26.30
2019-04-30T16:54:54.472Z,26.40
2019-04-30T16:57:24.371Z,26.40
2019-04-30T16:59:55.473Z,26.50
2019-04-30T17:02:29.127Z,26.50
2019-04-30T17:05:03.263Z,26.50
2019-04-30T17:07:38.702Z,26.50
2019-04-30T17:10:29.278Z,27.00
2019-04-30T17:13:00.563Z,27.40
2019-04-30T17:15:32.136Z,27.70
2019-04-30T17:18:03.069Z,27.30
2019-04-30T17:20:33.161Z,27.20
2019-04-30T17:23:03.183Z,27.20
2019-04-30T17:25:33.114Z,27.70
2019-04-30T17:28:03.030Z,27.50
2019-04-30T17:30:32.989Z,27.80
2019-04-30T17:33:02.939Z,27.90
2019-04-30T17:35:32.934Z,28.10
2019-04-30T17:38:03.004Z,28.50
2019-04-30T17:40:32.914Z,28.40
2019-04-30T17:43:02.864Z,28.90
2019-04-30T17:45:35.905Z,29.70
2019-04-30T17:48:06.496Z,29.50
2019-04-30T17:50:36.572Z,29.50
2019-04-30T17:53:06.448Z,30.30
2019-04-30T17:55:36.371Z,30.50
2019-04-30T17:58:06.316Z,31.00
2019-04-30T18:00:38.846Z,32.20
2019-04-30T18:03:10.979Z,32.30
2019-04-30T18:05:41.516Z,31.40
2019-04-30T18:08:11.778Z,31.90
2019-04-30T18:10:41.952Z,32.10
2019-04-30T18:13:11.995Z,33.10
2019-04-30T18:15:42.673Z,33.20
2019-04-30T18:18:16.031Z,34.20
2019-04-30T18:21:04.503Z,35.00
2019-04-30T18:23:50.159Z,35.90
2019-04-30T18:26:20.201Z,36.40
2019-04-30T18:28:50.127Z,36.90
2019-04-30T18:31:20.009Z,37.10
2019-04-30T18:33:51.431Z,38.00
2019-04-30T18:36:21.475Z,38.20
2019-04-30T18:38:51.464Z,38.80
2019-04-30T18:41:21.480Z,39.50
2019-04-30T18:43:51.574Z,39.70
2019-04-30T18:46:21.572Z,40.50
2019-04-30T18:48:52.864Z,41.10
2019-04-30T18:51:33.804Z,40.70
2019-04-30T18:53:54.466Z,39.90
2019-04-30T18:56:24.502Z,39.90
2019-04-30T18:58:54.788Z,39.40
2019-04-30T19:01:25.774Z,39.30
2019-04-30T19:03:55.742Z,40.10
2019-04-30T19:06:26.575Z,40.80
2019-04-30T19:09:03.817Z,41.40
2019-04-30T19:11:49.470Z,41.60
2019-04-30T19:14:29.035Z,41.70
2019-04-30T19:17:01.793Z,41.90
2019-04-30T19:19:36.657Z,41.80
2019-04-30T19:22:06.840Z,41.50
2019-04-30T19:24:37.327Z,41.10
2019-04-30T19:27:08.655Z,40.70
2019-04-30T19:29:40.605Z,40.70
2019-04-30T19:32:15.827Z,40.50
2019-04-30T19:35:10.321Z,40.20
2019-04-30T19:37:45.553Z,40.00
2019-04-30T19:40:19.045Z,40.10
2019-04-30T19:42:59.923Z,40.80
2019-04-30T19:45:38.181Z,40.90
2019-04-30T19:48:10.863Z,41.30
2019-04-30T19:50:43.488Z,41.40
2019-04-30T19:53:14.122Z,41.50
2019-04-30T19:55:49.227Z,41.60
2019-04-30T19:58:29.436Z,41.70
2019-04-30T20:00:55.766Z,42.00
2019-04-30T20:03:26.859Z,41.90
2019-04-30T20:05:58.625Z,42.20
2019-04-30T20:08:31.656Z,41.90
2019-04-30T20:11:04.002Z,42.20
2019-04-30T20:13:37.302Z,42.30
2019-04-30T20:16:09.764Z,42.30
2019-04-30T20:18:41.733Z,42.90
2019-04-30T20:21:14.858Z,42.90
2019-04-30T20:23:47.991Z,42.30
2019-04-30T20:26:20.981Z,42.40
2019-04-30T20:28:52.039Z,42.90
2019-04-30T20:31:22.190Z,42.80
2019-04-30T20:33:53.785Z,43.10
2019-04-30T20:36:25.037Z,43.50
2019-04-30T20:39:00.095Z,44.00
2019-04-30T20:41:31.853Z,44.30
2019-04-30T20:44:01.829Z,44.00
2019-04-30T20:46:35.282Z,44.60
2019-04-30T20:49:06.809Z,44.70
2019-04-30T20:51:53.471Z,45.50
2019-04-30T20:54:29.068Z,45.90
2019-04-30T20:57:10.819Z,46.40
2019-04-30T20:59:52.293Z,46.00
2019-04-30T21:02:33.217Z,46.40
2019-04-30T21:05:07.003Z,46.60
2019-04-30T21:07:38.183Z,47.20
2019-04-30T21:10:10.255Z,47.60
2019-04-30T21:12:40.822Z,48.30
2019-04-30T21:15:11.264Z,49.60
2019-04-30T21:17:42.279Z,50.90
2019-04-30T21:20:14.218Z,51.40
2019-04-30T21:22:49.106Z,52.20
2019-04-30T21:25:21.491Z,53.00
2019-04-30T21:27:53.005Z,53.60
2019-04-30T21:30:24.640Z,54.10
2019-04-30T21:33:15.208Z,54.80
2019-04-30T21:35:50.887Z,55.10
2019-04-30T21:38:21.592Z,55.30
2019-04-30T21:40:53.495Z,56.20
2019-04-30T21:43:23.907Z,56.40
2019-04-30T21:45:56.656Z,57.00
2019-04-30T21:48:28.782Z,57.30
2019-04-30T21:51:00.254Z,57.60
2019-04-30T21:53:32.464Z,58.00
2019-04-30T21:56:02.943Z,58.40
2019-04-30T21:58:35.021Z,58.80
2019-04-30T22:01:14.324Z,59.60
2019-04-30T22:03:46.565Z,59.10
2019-04-30T22:06:19.598Z,59.30
2019-04-30T22:08:51.336Z,59.20
2019-04-30T22:11:22.268Z,59.50
2019-04-30T22:13:52.347Z,59.90
2019-04-30T22:16:22.671Z,60.60
2019-04-30T22:18:52.527Z,60.80
2019-04-30T22:21:22.727Z,61.10
2019-04-30T22:23:52.612Z,61.60
2019-04-30T22:26:22.450Z,61.60
2019-04-30T22:28:52.393Z,61.90
2019-04-30T22:31:22.385Z,61.70
2019-04-30T22:33:52.343Z,61.90
2019-04-30T22:36:23.831Z,62.00
2019-04-30T22:38:55.400Z,62.20
2019-04-30T22:41:26.885Z,62.30
2019-04-30T22:43:56.824Z,62.50
2019-04-30T22:46:26.758Z,62.50
2019-04-30T22:48:56.859Z,62.90
2019-04-30T22:51:26.686Z,63.10
2019-04-30T22:53:56.546Z,63.30
2019-04-30T22:56:26.474Z,63.60
2019-04-30T22:58:56.400Z,64.10
2019-04-30T23:01:46.063Z,64.10
2019-04-30T23:04:17.638Z,64.20
2019-04-30T23:06:47.649Z,64.70
2019-04-30T23:09:18.344Z,64.80
2019-04-30T23:11:48.411Z,64.70
2019-04-30T23:14:18.942Z,64.80
2019-04-30T23:16:48.923Z,65.40
2019-04-30T23:19:18.783Z,65.30
2019-04-30T23:21:48.622Z,65.40
2019-04-30T23:24:18.556Z,65.30
2019-04-30T23:26:48.397Z,65.40
2019-04-30T23:29:18.279Z,65.60
2019-04-30T23:31:48.112Z,65.70
2019-04-30T23:34:18.422Z,66.30
2019-04-30T23:36:48.369Z,66.10
2019-04-30T23:39:18.229Z,66.50
2019-04-30T23:41:48.084Z,66.50
2019-04-30T23:44:18.034Z,66.30
2019-04-30T23:46:48.963Z,66.30
2019-04-30T23:49:18.904Z,66.30
2019-04-30T23:51:50.511Z,66.20
2019-04-30T23:54:20.363Z,66.40
2019-04-30T23:56:50.229Z,66.70
2019-04-30T23:59:20.150Z,66.40
